Página principal
METAR-TAF:

METAR-TAF

Aeroportos :

Istambul Atatürk, Turquia

Aeroporto de Istambul Atatürk

latitude: 40-58N, longitude: 028-49E, altura: 48 m

Observação actual do tempo

O boletim foi feito há 41 minutos, às 19:20 UTC
Vento 6 kt de oeste, variando entre sudoeste e oes-noroeste
Temperatura 14°C
Humidade 77%
Pressão 1021 hPa
Visibilidade 10 km ou mais
sem nuvens abaixo de 1500 metros e sem cumulonimbus

METAR: LTBA 121920Z 26006KT 230V300 CAVOK 14/10 Q1021 NOSIG RMK RWY17L 23008G18KT 160V260 RWY05 25005KT RWY23 25008KT

Hora: 23:01 (20:01 UTC)

Previsão

O boletim foi feito há 3 horas e 21 minutos, às 16:40 UTC
Previsão válida de 12 às 18 UTC a 13 às 24 UTC
Vento 10 kt de su-sudoeste
Visibilidade 10 km ou mais
sem nuvens abaixo de 1500 metros e sem cumulonimbus
Tornando-se
de 13 às 21 UTC a 13 às 24 UTC
Vento 15 kt de sudoeste com rajadas de 25 kt

TAF: LTBA 121640Z 1218/1324 21010KT CAVOK BECMG 1321/1324 23015G25KT

Observações e previsões do tempo de mais de 4000 aeroportos (mensagens METAR e TAF).

As estações disponíveis são os pontos amarelos e vermelhos sobre o mapa.

Mova o rato sobre o mapa para ver o nome da estação.

Depois clique no ponto para visualizar as observações e previsões meteorológicas.

Para alterar o mapa : clique nos botões verdes com uma cruz preta para aumentar o zoom; no botão verde com uma pitada de zoom; ou nas setas verdes para mapas adjacentes.


METAR-TAF: